createdAt,value
2017-07-08T00:01:04.068Z,100340.29
2017-07-08T00:03:33.781Z,100343.64
2017-07-08T00:06:04.135Z,100342.36
2017-07-08T00:08:34.470Z,100342.77
2017-07-08T00:11:04.338Z,100349.89
2017-07-08T00:13:34.093Z,100350.92
2017-07-08T00:16:03.967Z,100350.70
2017-07-08T00:18:33.720Z,100353.39
2017-07-08T00:21:02.878Z,100354.93
2017-07-08T00:23:33.337Z,100355.80
2017-07-08T00:26:03.326Z,100353.67
2017-07-08T00:28:33.785Z,100349.74
2017-07-08T00:31:03.722Z,100356.34
2017-07-08T00:33:33.430Z,100354.35
2017-07-08T00:36:03.221Z,100358.48
2017-07-08T00:38:33.532Z,100352.11
2017-07-08T00:41:03.286Z,100353.70
2017-07-08T00:43:32.979Z,100350.91
2017-07-08T00:46:02.656Z,100359.28
2017-07-08T00:48:32.378Z,100357.89
2017-07-08T00:51:02.109Z,100366.12
2017-07-08T00:53:31.859Z,100366.94
2017-07-08T00:56:01.537Z,100363.70
2017-07-08T00:58:31.268Z,100372.26
2017-07-08T01:01:00.589Z,100361.73
2017-07-08T01:03:30.413Z,100363.84
2017-07-08T01:06:00.209Z,100364.00
2017-07-08T01:08:30.034Z,100361.45
2017-07-08T01:11:00.082Z,100363.06
2017-07-08T01:13:29.851Z,100362.82
2017-07-08T01:16:00.157Z,100356.78
2017-07-08T01:18:30.453Z,100360.06
2017-07-08T01:21:00.226Z,100358.09
2017-07-08T01:23:29.904Z,100360.72
2017-07-08T01:25:58.922Z,100358.53
2017-07-08T01:28:28.627Z,100355.59
2017-07-08T01:30:58.395Z,100360.66
2017-07-08T01:33:28.082Z,100351.50
2017-07-08T01:35:57.766Z,100354.86
2017-07-08T01:38:27.543Z,100359.39
2017-07-08T01:41:02.541Z,100360.41
2017-07-08T01:43:35.148Z,100363.34
2017-07-08T01:46:04.886Z,100359.67
2017-07-08T01:48:35.200Z,100361.74
2017-07-08T01:51:05.027Z,100360.71
2017-07-08T01:53:35.123Z,100371.00
2017-07-08T01:56:04.115Z,100366.56
2017-07-08T01:58:35.267Z,100361.66
2017-07-08T02:01:04.955Z,100367.89
2017-07-08T02:03:34.755Z,100374.66
2017-07-08T02:06:04.500Z,100380.73
2017-07-08T02:08:34.244Z,100383.66
2017-07-08T02:11:04.081Z,100386.02
2017-07-08T02:13:33.849Z,100385.97
2017-07-08T02:16:03.742Z,100387.45
2017-07-08T02:18:33.417Z,100389.23
2017-07-08T02:21:03.201Z,100388.16
2017-07-08T02:23:32.854Z,100390.98
2017-07-08T02:26:02.707Z,100396.41
2017-07-08T02:28:32.558Z,100397.64
2017-07-08T02:31:02.441Z,100398.49
2017-07-08T02:33:32.142Z,100401.97
2017-07-08T02:36:01.836Z,100404.86
2017-07-08T02:38:31.615Z,100402.41
2017-07-08T02:41:01.284Z,100406.94
2017-07-08T02:43:32.443Z,100406.30
2017-07-08T02:46:02.114Z,100403.16
2017-07-08T02:48:31.811Z,100404.91
2017-07-08T02:51:01.466Z,100408.44
2017-07-08T02:53:31.214Z,100410.03
2017-07-08T02:56:00.890Z,100410.37
2017-07-08T02:58:31.332Z,100414.79
2017-07-08T03:01:01.078Z,100420.37
2017-07-08T03:03:31.391Z,100415.25
2017-07-08T03:06:01.197Z,100423.31
2017-07-08T03:08:30.923Z,100416.10
2017-07-08T03:11:00.638Z,100417.02
2017-07-08T03:13:30.314Z,100414.17
2017-07-08T03:16:00.044Z,100414.55
2017-07-08T03:18:29.953Z,100411.06
2017-07-08T03:20:59.620Z,100407.35
2017-07-08T03:23:29.985Z,100405.59
2017-07-08T03:25:59.700Z,100403.55
2017-07-08T03:28:29.463Z,100405.03
2017-07-08T03:30:59.156Z,100404.09
2017-07-08T03:33:28.876Z,100405.64
2017-07-08T03:35:59.155Z,100402.77
2017-07-08T03:38:28.909Z,100406.02
2017-07-08T03:40:58.651Z,100411.78
2017-07-08T03:43:29.107Z,100412.74
2017-07-08T03:45:58.895Z,100415.69
2017-07-08T03:48:29.209Z,100425.52
2017-07-08T03:50:58.918Z,100422.30
2017-07-08T03:53:28.614Z,100411.94
2017-07-08T03:55:58.311Z,100424.00
2017-07-08T03:58:28.022Z,100419.05
2017-07-08T04:00:57.738Z,100417.02
2017-07-08T04:03:27.430Z,100422.77
2017-07-08T04:05:57.094Z,100426.45
2017-07-08T04:08:26.823Z,100420.70
2017-07-08T04:10:56.495Z,100419.20
2017-07-08T04:13:26.255Z,100420.45
2017-07-08T04:15:56.683Z,100422.99
2017-07-08T04:18:27.252Z,100427.36
2017-07-08T04:20:57.436Z,100420.27
2017-07-08T04:23:27.426Z,100421.92
2017-07-08T04:25:57.106Z,100427.37
2017-07-08T04:28:26.808Z,100424.86
2017-07-08T04:30:56.584Z,100423.63
2017-07-08T04:33:26.274Z,100428.64
2017-07-08T04:35:56.032Z,100435.06
2017-07-08T04:38:25.816Z,100436.65
2017-07-08T04:40:58.794Z,100435.20
2017-07-08T04:43:29.406Z,100432.80
2017-07-08T04:45:59.306Z,100428.37
2017-07-08T04:48:30.807Z,100430.06
2017-07-08T04:51:02.393Z,100424.83
2017-07-08T04:53:33.231Z,100429.10
2017-07-08T04:56:04.629Z,100430.80
2017-07-08T04:58:35.931Z,100430.04
2017-07-08T05:01:06.925Z,100433.75
2017-07-08T05:03:36.614Z,100442.70
2017-07-08T05:06:06.394Z,100441.17
2017-07-08T05:08:37.321Z,100442.88
2017-07-08T05:11:08.673Z,100443.69
2017-07-08T05:13:40.317Z,100456.80
2017-07-08T05:16:11.694Z,100446.28
2017-07-08T05:18:41.925Z,100446.84
2017-07-08T05:21:11.597Z,100449.82
2017-07-08T05:23:41.276Z,100443.33
2017-07-08T05:26:11.055Z,100448.94
2017-07-08T05:28:41.152Z,100442.91
2017-07-08T05:31:10.987Z,100445.32
2017-07-08T05:33:39.975Z,100444.63
2017-07-08T05:36:09.698Z,100434.91
2017-07-08T05:38:39.441Z,100439.17
2017-07-08T05:41:09.874Z,100436.44
2017-07-08T05:43:39.615Z,100439.12
2017-07-08T05:46:09.530Z,100438.55
2017-07-08T05:48:39.538Z,100435.32
2017-07-08T05:51:09.226Z,100439.81
2017-07-08T05:53:39.050Z,100438.70
2017-07-08T05:56:09.431Z,100440.39
2017-07-08T05:58:39.214Z,100445.05
2017-07-08T06:01:09.567Z,100446.79
2017-07-08T06:03:39.923Z,100448.40
2017-07-08T06:06:09.668Z,100452.61
2017-07-08T06:08:38.619Z,100450.63
2017-07-08T06:11:08.352Z,100445.34
2017-07-08T06:13:38.035Z,100445.34
2017-07-08T06:16:07.778Z,100457.75
2017-07-08T06:18:37.507Z,100460.22
2017-07-08T06:21:07.291Z,100454.33
2017-07-08T06:23:37.087Z,100454.77
2017-07-08T06:26:06.468Z,100459.19
2017-07-08T06:28:36.139Z,100461.78
2017-07-08T06:31:05.966Z,100465.58
2017-07-08T06:33:35.659Z,100467.02
2017-07-08T06:36:05.425Z,100475.77
2017-07-08T06:38:35.102Z,100476.12
2017-07-08T06:41:04.867Z,100485.98
2017-07-08T06:43:34.639Z,100482.27
2017-07-08T06:46:04.531Z,100486.25
2017-07-08T06:48:34.295Z,100493.96
2017-07-08T06:51:04.661Z,100485.33
2017-07-08T06:53:35.135Z,100490.27
2017-07-08T06:56:04.540Z,100494.18
2017-07-08T06:58:34.234Z,100500.11
2017-07-08T07:01:04.030Z,100489.39
2017-07-08T07:03:33.781Z,100494.91
2017-07-08T07:06:03.610Z,100488.99
2017-07-08T07:08:33.294Z,100486.44
2017-07-08T07:11:03.058Z,100487.77
2017-07-08T07:13:32.739Z,100486.07
2017-07-08T07:16:10.740Z,100490.70
2017-07-08T07:18:43.239Z,100488.84
2017-07-08T07:21:13.067Z,100498.02
2017-07-08T07:23:42.809Z,100496.11
2017-07-08T07:26:12.711Z,100500.77
2017-07-08T07:28:42.975Z,100504.83
2017-07-08T07:31:13.252Z,100498.39
2017-07-08T07:33:42.989Z,100510.78
2017-07-08T07:36:12.742Z,100507.51
2017-07-08T07:38:41.750Z,100506.64
2017-07-08T07:41:11.525Z,100503.34
2017-07-08T07:43:41.281Z,100511.46
2017-07-08T07:46:11.404Z,100510.15
2017-07-08T07:48:41.101Z,100507.11
2017-07-08T07:51:10.818Z,100512.43
2017-07-08T07:53:40.495Z,100509.30
2017-07-08T07:56:10.267Z,100509.02
2017-07-08T07:58:40.064Z,100511.92
2017-07-08T08:03:39.355Z,100508.95
2017-07-08T08:06:09.620Z,100514.69
2017-07-08T08:08:39.362Z,100507.17
2017-07-08T08:11:09.039Z,100515.86
2017-07-08T08:13:38.727Z,100521.09
2017-07-08T08:16:08.466Z,100519.96
2017-07-08T08:18:37.794Z,100523.69
2017-07-08T08:21:07.519Z,100517.64
2017-07-08T08:23:37.917Z,100517.94
2017-07-08T08:26:07.731Z,100512.28
2017-07-08T08:28:37.542Z,100510.12
2017-07-08T08:31:07.352Z,100507.50
2017-07-08T08:33:37.127Z,100501.06
2017-07-08T08:36:06.877Z,100498.00
2017-07-08T08:38:36.391Z,100498.34
2017-07-08T08:41:06.093Z,100503.47
2017-07-08T08:43:35.769Z,100502.02
2017-07-08T08:46:05.584Z,100500.14
2017-07-08T08:48:35.247Z,100499.93
2017-07-08T08:51:05.062Z,100500.86
2017-07-08T08:53:34.401Z,100500.61
2017-07-08T08:56:03.943Z,100503.41
2017-07-08T08:58:33.871Z,100507.22
2017-07-08T09:01:03.585Z,100511.70
2017-07-08T09:03:34.763Z,100510.75
2017-07-08T09:06:04.345Z,100516.51
2017-07-08T09:08:33.909Z,100517.04
2017-07-08T09:11:03.698Z,100513.42
2017-07-08T09:13:33.369Z,100515.78
2017-07-08T09:16:03.072Z,100521.56
2017-07-08T09:18:32.984Z,100522.03
2017-07-08T09:21:02.939Z,100526.41
2017-07-08T09:23:32.642Z,100533.37
2017-07-08T09:26:02.951Z,100536.91
2017-07-08T09:28:32.681Z,100531.64
2017-07-08T09:31:03.026Z,100530.91
2017-07-08T09:33:32.723Z,100532.94
2017-07-08T09:36:02.495Z,100531.34
2017-07-08T09:38:31.549Z,100531.04
2017-07-08T09:41:01.274Z,100528.80
2017-07-08T09:43:30.967Z,100527.52
2017-07-08T09:46:00.706Z,100527.75
2017-07-08T09:48:30.432Z,100525.59
2017-07-08T09:51:00.114Z,100527.48
2017-07-08T09:53:29.875Z,100530.54
2017-07-08T09:55:59.688Z,100538.12
2017-07-08T09:58:29.386Z,100532.73
2017-07-08T10:00:59.094Z,100529.20
2017-07-08T10:03:33.205Z,100535.67
2017-07-08T10:06:08.412Z,100540.83
2017-07-08T10:08:38.143Z,100543.98
2017-07-08T10:11:07.863Z,100545.84
2017-07-08T10:13:37.544Z,100544.23
2017-07-08T10:16:07.275Z,100544.23
2017-07-08T10:18:36.821Z,100546.17
2017-07-08T10:21:06.622Z,100534.97
2017-07-08T10:23:36.947Z,100543.93
2017-07-08T10:26:06.711Z,100540.91
2017-07-08T10:28:37.376Z,100540.24
2017-07-08T10:31:07.842Z,100541.77
2017-07-08T10:33:37.583Z,100543.45
2017-07-08T10:36:07.977Z,100540.02
2017-07-08T10:38:37.667Z,100539.27
2017-07-08T10:41:08.096Z,100532.30
2017-07-08T10:43:38.272Z,100530.64
2017-07-08T10:46:08.583Z,100532.33
2017-07-08T10:48:38.307Z,100535.57
2017-07-08T10:51:08.756Z,100535.66
2017-07-08T10:53:38.462Z,100540.05
2017-07-08T10:56:08.295Z,100537.80
2017-07-08T10:58:38.074Z,100529.63
2017-07-08T11:01:07.811Z,100528.37
2017-07-08T11:03:37.608Z,100530.90
2017-07-08T11:06:08.367Z,100533.13
2017-07-08T11:08:38.050Z,100533.59
2017-07-08T11:11:07.739Z,100533.34
2017-07-08T11:13:37.442Z,100529.97
2017-07-08T11:16:07.879Z,100526.04
2017-07-08T11:18:38.331Z,100526.11
2017-07-08T11:21:08.055Z,100522.63
2017-07-08T11:23:37.789Z,100520.97
2017-07-08T11:26:07.574Z,100519.86
2017-07-08T11:28:37.435Z,100515.92
2017-07-08T11:31:07.143Z,100510.76
2017-07-08T11:33:36.930Z,100515.55
2017-07-08T11:36:06.669Z,100513.16
2017-07-08T11:38:36.435Z,100509.46
2017-07-08T11:41:06.801Z,100515.19
2017-07-08T11:43:38.330Z,100509.22
2017-07-08T11:46:08.180Z,100510.18
2017-07-08T11:48:38.932Z,100510.81
2017-07-08T11:51:08.647Z,100513.34
2017-07-08T11:53:38.405Z,100515.41
2017-07-08T11:56:08.170Z,100511.69
2017-07-08T11:58:37.876Z,100518.53
2017-07-08T12:01:07.576Z,100521.64
2017-07-08T12:03:37.375Z,100517.33
2017-07-08T12:06:07.086Z,100512.94
2017-07-08T12:08:36.814Z,100515.13
2017-07-08T12:11:07.876Z,100514.48
2017-07-08T12:13:38.368Z,100515.16
2017-07-08T12:16:09.365Z,100506.73
2017-07-08T12:18:39.572Z,100502.73
2017-07-08T12:21:09.413Z,100502.20
2017-07-08T12:23:39.164Z,100497.84
2017-07-08T12:26:08.897Z,100503.66
2017-07-08T12:28:38.574Z,100504.02
2017-07-08T12:31:11.982Z,100499.09
2017-07-08T12:33:44.467Z,100501.02
2017-07-08T12:36:15.428Z,100501.06
2017-07-08T12:38:46.561Z,100495.63
2017-07-08T12:41:17.955Z,100500.06
2017-07-08T12:43:49.327Z,100495.49
2017-07-08T12:46:20.383Z,100493.34
2017-07-08T12:48:51.366Z,100497.06
2017-07-08T12:51:22.267Z,100490.18
2017-07-08T12:53:52.422Z,100495.23
2017-07-08T12:56:22.980Z,100498.42
2017-07-08T12:58:54.335Z,100495.08
2017-07-08T13:01:25.457Z,100493.56
2017-07-08T13:03:56.280Z,100495.09
2017-07-08T13:06:26.918Z,100496.86
2017-07-08T13:08:57.910Z,100500.09
2017-07-08T13:11:28.253Z,100495.36
2017-07-08T13:13:59.535Z,100496.45
2017-07-08T13:16:29.739Z,100493.59
2017-07-08T13:19:00.765Z,100492.85
2017-07-08T13:21:31.813Z,100484.59
2017-07-08T13:24:02.852Z,100478.02
2017-07-08T13:26:34.051Z,100476.13
2017-07-08T13:29:05.872Z,100477.55
2017-07-08T13:31:39.188Z,100469.85
2017-07-08T13:34:10.929Z,100470.22
2017-07-08T13:36:42.109Z,100469.10
2017-07-08T13:39:12.247Z,100460.84
2017-07-08T13:41:42.578Z,100462.94
2017-07-08T13:44:13.805Z,100463.27
2017-07-08T13:46:44.654Z,100461.66
2017-07-08T13:49:16.047Z,100457.12
2017-07-08T13:51:47.240Z,100454.48
2017-07-08T13:54:18.194Z,100456.32
2017-07-08T13:56:49.385Z,100454.91
2017-07-08T13:59:20.160Z,100455.05
2017-07-08T14:01:50.910Z,100450.16
2017-07-08T14:04:21.669Z,100447.69
2017-07-08T14:06:52.442Z,100452.50
2017-07-08T14:09:23.318Z,100453.39
2017-07-08T14:11:53.485Z,100450.47
2017-07-08T14:14:23.938Z,100450.28
2017-07-08T14:16:54.640Z,100451.00
2017-07-08T14:19:25.963Z,100446.31
2017-07-08T14:21:57.027Z,100440.69
2017-07-08T14:24:29.180Z,100442.80
2017-07-08T14:26:59.436Z,100443.82
2017-07-08T14:29:29.830Z,100444.73
2017-07-08T14:32:00.755Z,100442.88
2017-07-08T14:34:33.972Z,100439.76
2017-07-08T14:37:07.781Z,100434.75
2017-07-08T14:39:40.957Z,100440.29
2017-07-08T14:42:13.632Z,100439.80
2017-07-08T14:44:45.445Z,100441.86
2017-07-08T14:47:17.702Z,100448.45
2017-07-08T14:49:50.162Z,100441.88
2017-07-08T14:52:23.003Z,100437.19
2017-07-08T14:54:55.237Z,100444.37
2017-07-08T14:57:27.337Z,100443.69
2017-07-08T15:00:02.467Z,100442.45
2017-07-08T15:02:40.620Z,100440.09
2017-07-08T15:05:19.361Z,100436.87
2017-07-08T15:07:59.565Z,100434.99
2017-07-08T15:10:36.512Z,100431.72
2017-07-08T15:13:18.279Z,100431.69
2017-07-08T15:15:51.007Z,100433.02
2017-07-08T15:18:20.851Z,100436.20
2017-07-08T15:20:50.533Z,100429.84
2017-07-08T15:23:20.182Z,100429.05
2017-07-08T15:25:49.907Z,100430.48
2017-07-08T15:28:19.592Z,100426.16
2017-07-08T15:30:49.338Z,100424.16
2017-07-08T15:33:18.659Z,100424.09
2017-07-08T15:35:48.460Z,100424.09
2017-07-08T15:38:23.243Z,100423.36
2017-07-08T15:40:58.799Z,100414.17
2017-07-08T15:43:28.669Z,100417.08
2017-07-08T15:45:58.391Z,100415.94
2017-07-08T15:48:28.042Z,100415.43
2017-07-08T15:50:57.787Z,100411.23
2017-07-08T15:53:27.434Z,100416.13
2017-07-08T15:55:57.223Z,100416.28
2017-07-08T15:58:26.930Z,100414.86
2017-07-08T16:00:57.170Z,100404.51
2017-07-08T16:03:29.006Z,100402.89
2017-07-08T16:06:00.962Z,100401.24
2017-07-08T16:08:33.331Z,100403.02
2017-07-08T16:11:05.477Z,100401.33
2017-07-08T16:13:35.547Z,100398.12
2017-07-08T16:16:07.799Z,100395.00
2017-07-08T16:18:39.139Z,100396.52
2017-07-08T16:21:10.910Z,100394.67
2017-07-08T16:23:43.690Z,100396.09
2017-07-08T16:26:13.957Z,100392.89
2017-07-08T16:28:43.866Z,100395.02
2017-07-08T16:31:13.544Z,100387.36
2017-07-08T16:33:43.314Z,100394.86
2017-07-08T16:36:13.057Z,100387.21
2017-07-08T16:38:42.750Z,100392.02
2017-07-08T16:41:20.168Z,100386.98
2017-07-08T16:43:52.364Z,100392.44
2017-07-08T16:46:22.026Z,100388.39
2017-07-08T16:48:51.821Z,100391.17
2017-07-08T16:51:21.624Z,100389.59
2017-07-08T16:53:51.379Z,100390.83
2017-07-08T16:56:21.059Z,100391.59
2017-07-08T16:58:50.746Z,100389.75
2017-07-08T17:01:20.619Z,100381.17
2017-07-08T17:03:51.088Z,100386.90
2017-07-08T17:06:20.845Z,100387.48
2017-07-08T17:08:50.653Z,100383.09
2017-07-08T17:11:20.326Z,100385.44
2017-07-08T17:13:50.387Z,100386.02
2017-07-08T17:16:20.178Z,100389.98
2017-07-08T17:18:50.099Z,100391.52
2017-07-08T17:21:19.794Z,100387.91
2017-07-08T17:23:50.132Z,100387.91
2017-07-08T17:26:19.829Z,100390.02
2017-07-08T17:28:50.290Z,100387.32
2017-07-08T17:31:20.015Z,100390.25
2017-07-08T17:33:49.711Z,100388.91
2017-07-08T17:36:19.464Z,100394.13
2017-07-08T17:38:49.262Z,100393.09
2017-07-08T17:41:18.974Z,100395.66
2017-07-08T17:43:55.307Z,100395.47
2017-07-08T17:46:27.421Z,100400.84
2017-07-08T17:48:57.118Z,100404.23
2017-07-08T17:51:26.835Z,100405.73
2017-07-08T17:53:57.162Z,100402.20
2017-07-08T17:56:26.979Z,100406.75
2017-07-08T17:58:56.758Z,100412.73
2017-07-08T18:01:26.446Z,100413.31
2017-07-08T18:03:56.182Z,100416.68
2017-07-08T18:06:25.896Z,100423.56
2017-07-08T18:08:55.643Z,100419.36
2017-07-08T18:11:25.324Z,100423.46
2017-07-08T18:13:55.247Z,100419.67
2017-07-08T18:16:24.955Z,100424.64
2017-07-08T18:18:54.754Z,100421.02
2017-07-08T18:21:24.409Z,100425.33
2017-07-08T18:23:54.726Z,100426.92
2017-07-08T18:26:24.430Z,100425.98
2017-07-08T18:28:54.143Z,100434.69
2017-07-08T18:31:23.861Z,100433.58
2017-07-08T18:33:53.607Z,100438.36
2017-07-08T18:36:24.064Z,100445.08
2017-07-08T18:38:53.787Z,100442.50
2017-07-08T18:41:24.087Z,100434.42
2017-07-08T18:43:53.739Z,100441.36
2017-07-08T18:46:31.091Z,100441.64
2017-07-08T18:49:01.425Z,100438.35
2017-07-08T18:51:31.845Z,100438.47
2017-07-08T18:54:01.607Z,100435.59
2017-07-08T18:56:31.374Z,100439.88
2017-07-08T18:59:01.194Z,100433.09
2017-07-08T19:01:30.922Z,100435.73
2017-07-08T19:04:01.602Z,100435.86
2017-07-08T19:06:32.225Z,100435.62
2017-07-08T19:09:01.890Z,100439.77
2017-07-08T19:11:31.591Z,100439.34
2017-07-08T19:14:01.252Z,100439.38
2017-07-08T19:16:31.694Z,100450.34
2017-07-08T19:19:01.435Z,100453.67
2017-07-08T19:21:31.159Z,100459.44
2017-07-08T19:24:00.906Z,100447.13
2017-07-08T19:26:30.652Z,100457.75
2017-07-08T19:29:00.319Z,100466.98
2017-07-08T19:31:30.010Z,100472.14
2017-07-08T19:33:59.822Z,100476.30
2017-07-08T19:36:29.659Z,100489.30
2017-07-08T19:38:59.351Z,100483.92
2017-07-08T19:41:29.067Z,100488.23
2017-07-08T19:43:58.764Z,100491.56
2017-07-08T19:46:28.542Z,100495.09
2017-07-08T19:49:02.546Z,100499.75
2017-07-08T19:51:37.331Z,100508.67
2017-07-08T19:54:07.004Z,100508.35
2017-07-08T19:56:36.763Z,100509.59
2017-07-08T19:59:07.174Z,100514.28
2017-07-08T20:01:36.889Z,100517.64
2017-07-08T20:04:06.622Z,100514.83
2017-07-08T20:06:36.332Z,100522.41
2017-07-08T20:09:06.054Z,100520.53
2017-07-08T20:11:35.710Z,100523.05
2017-07-08T20:14:05.542Z,100536.54
2017-07-08T20:16:35.930Z,100534.55
2017-07-08T20:19:07.143Z,100542.75
2017-07-08T20:21:36.863Z,100545.64
2017-07-08T20:24:06.596Z,100549.16
2017-07-08T20:26:36.315Z,100548.31
2017-07-08T20:29:06.101Z,100550.22
2017-07-08T20:31:35.809Z,100551.27
2017-07-08T20:34:05.604Z,100555.03
2017-07-08T20:36:35.331Z,100564.40
2017-07-08T20:39:06.191Z,100566.37
2017-07-08T20:41:35.883Z,100557.56
2017-07-08T20:44:05.760Z,100562.35
2017-07-08T20:46:35.438Z,100566.45
2017-07-08T20:49:05.183Z,100555.67
2017-07-08T20:51:42.031Z,100552.27
2017-07-08T20:54:14.686Z,100555.58
2017-07-08T20:56:44.441Z,100552.77
2017-07-08T20:59:14.271Z,100544.49
2017-07-08T21:01:43.971Z,100543.36
2017-07-08T21:04:13.650Z,100546.56
2017-07-08T21:06:43.305Z,100548.78
2017-07-08T21:09:13.779Z,100542.05
2017-07-08T21:11:44.187Z,100543.91
2017-07-08T21:14:14.539Z,100539.52
2017-07-08T21:16:44.192Z,100537.67
2017-07-08T21:19:13.939Z,100534.81
2017-07-08T21:21:43.666Z,100538.51
2017-07-08T21:24:13.355Z,100536.81
2017-07-08T21:26:43.135Z,100538.05
2017-07-08T21:29:12.934Z,100533.46
2017-07-08T21:31:42.698Z,100532.16
2017-07-08T21:34:12.483Z,100531.52
2017-07-08T21:36:42.244Z,100531.89
2017-07-08T21:39:12.526Z,100534.20
2017-07-08T21:41:42.238Z,100539.98
2017-07-08T21:44:11.943Z,100534.20
2017-07-08T21:46:41.635Z,100540.83
2017-07-08T21:49:11.386Z,100534.66
2017-07-08T21:51:41.180Z,100532.46
2017-07-08T21:54:10.938Z,100533.74
2017-07-08T21:56:40.702Z,100535.89
2017-07-08T21:59:10.458Z,100534.55
2017-07-08T22:01:40.912Z,100541.48
2017-07-08T22:04:10.778Z,100539.66
2017-07-08T22:06:40.477Z,100548.80
2017-07-08T22:09:10.148Z,100542.23
2017-07-08T22:11:39.940Z,100544.52
2017-07-08T22:14:09.639Z,100539.47
2017-07-08T22:16:39.400Z,100534.50
2017-07-08T22:19:09.063Z,100534.14
2017-07-08T22:21:38.734Z,100529.48
2017-07-08T22:24:09.195Z,100536.15
2017-07-08T22:26:39.743Z,100531.14
2017-07-08T22:29:09.547Z,100539.18
2017-07-08T22:31:39.327Z,100535.67
2017-07-08T22:34:09.186Z,100536.17
2017-07-08T22:36:39.002Z,100537.48
2017-07-08T22:39:09.016Z,100542.46
2017-07-08T22:41:39.472Z,100541.33
2017-07-08T22:44:09.534Z,100536.20
2017-07-08T22:46:39.396Z,100534.48
2017-07-08T22:49:09.729Z,100538.20
2017-07-08T22:51:39.633Z,100528.50
2017-07-08T22:54:09.458Z,100520.98
2017-07-08T22:56:45.107Z,100519.59
2017-07-08T22:59:14.830Z,100515.80
2017-07-08T23:01:44.744Z,100515.57
2017-07-08T23:04:14.855Z,100512.45
2017-07-08T23:06:44.669Z,100513.89
2017-07-08T23:09:14.490Z,100509.34
2017-07-08T23:11:44.308Z,100512.21
2017-07-08T23:14:14.742Z,100516.86
2017-07-08T23:16:44.555Z,100517.59
2017-07-08T23:19:16.130Z,100515.63
2017-07-08T23:21:46.032Z,100515.48
2017-07-08T23:24:15.844Z,100518.69
2017-07-08T23:26:45.862Z,100523.33
2017-07-08T23:29:15.673Z,100520.27
2017-07-08T23:31:45.490Z,100511.78
2017-07-08T23:34:15.188Z,100509.59
2017-07-08T23:36:45.021Z,100500.18
2017-07-08T23:39:14.837Z,100504.38
2017-07-08T23:41:44.762Z,100497.22
2017-07-08T23:44:14.578Z,100496.09
2017-07-08T23:46:44.385Z,100496.49
2017-07-08T23:49:14.208Z,100482.78
2017-07-08T23:51:43.904Z,100482.83
2017-07-08T23:54:13.636Z,100486.56
2017-07-08T23:56:44.260Z,100496.16
2017-07-08T23:59:24.158Z,100498.46
